sensor_id;sensor_type;location;lat;lon;timestamp;P1;durP1;ratioP1;P2;durP2;ratioP2
11338;SDS011;5724;42.684;23.252;2022-12-18T00:00:30;4.73;;;4.37;;
11338;SDS011;5724;42.684;23.252;2022-12-18T00:02:56;3.63;;;3.43;;
11338;SDS011;5724;42.684;23.252;2022-12-18T00:05:21;4.07;;;3.83;;
11338;SDS011;5724;42.684;23.252;2022-12-18T00:07:47;4.73;;;4.33;;
11338;SDS011;5724;42.684;23.252;2022-12-18T00:10:12;3.73;;;3.30;;
11338;SDS011;5724;42.684;23.252;2022-12-18T00:12:38;4.83;;;4.43;;
11338;SDS011;5724;42.684;23.252;2022-12-18T00:15:03;6.00;;;5.53;;
11338;SDS011;5724;42.684;23.252;2022-12-18T00:17:29;5.83;;;5.33;;
11338;SDS011;5724;42.684;23.252;2022-12-18T00:19:54;5.97;;;4.63;;
11338;SDS011;5724;42.684;23.252;2022-12-18T00:22:20;5.07;;;4.67;;
11338;SDS011;5724;42.684;23.252;2022-12-18T00:24:45;4.80;;;3.67;;
11338;SDS011;5724;42.684;23.252;2022-12-18T00:27:10;5.50;;;5.00;;
11338;SDS011;5724;42.684;23.252;2022-12-18T00:29:36;4.87;;;4.47;;
11338;SDS011;5724;42.684;23.252;2022-12-18T00:32:01;3.63;;;3.40;;
11338;SDS011;5724;42.684;23.252;2022-12-18T00:34:27;6.37;;;5.77;;
11338;SDS011;5724;42.684;23.252;2022-12-18T00:36:52;4.50;;;4.10;;
11338;SDS011;5724;42.684;23.252;2022-12-18T00:39:18;6.57;;;3.97;;
11338;SDS011;5724;42.684;23.252;2022-12-18T00:41:43;4.90;;;4.57;;
11338;SDS011;5724;42.684;23.252;2022-12-18T00:44:27;3.40;;;3.20;;
11338;SDS011;5724;42.684;23.252;2022-12-18T00:46:53;4.43;;;4.03;;
11338;SDS011;5724;42.684;23.252;2022-12-18T00:49:19;6.97;;;6.27;;
11338;SDS011;5724;42.684;23.252;2022-12-18T00:51:45;4.67;;;4.07;;
11338;SDS011;5724;42.684;23.252;2022-12-18T00:54:10;6.03;;;5.40;;
11338;SDS011;5724;42.684;23.252;2022-12-18T00:56:37;3.33;;;3.03;;
11338;SDS011;5724;42.684;23.252;2022-12-18T00:59:03;5.87;;;5.37;;
11338;SDS011;5724;42.684;23.252;2022-12-18T01:01:29;4.93;;;4.53;;
11338;SDS011;5724;42.684;23.252;2022-12-18T01:03:57;5.13;;;4.73;;
11338;SDS011;5724;42.684;23.252;2022-12-18T01:06:24;4.43;;;4.13;;
11338;SDS011;5724;42.684;23.252;2022-12-18T01:08:49;5.43;;;4.93;;
11338;SDS011;5724;42.684;23.252;2022-12-18T01:11:16;5.07;;;4.57;;
11338;SDS011;5724;42.684;23.252;2022-12-18T01:13:43;4.63;;;4.23;;
11338;SDS011;5724;42.684;23.252;2022-12-18T01:16:11;4.90;;;4.50;;
11338;SDS011;5724;42.684;23.252;2022-12-18T01:18:38;3.40;;;3.13;;
11338;SDS011;5724;42.684;23.252;2022-12-18T01:21:07;6.27;;;3.73;;
11338;SDS011;5724;42.684;23.252;2022-12-18T01:23:34;4.13;;;3.80;;
11338;SDS011;5724;42.684;23.252;2022-12-18T01:26:09;4.13;;;3.83;;
11338;SDS011;5724;42.684;23.252;2022-12-18T01:28:38;5.50;;;5.07;;
11338;SDS011;5724;42.684;23.252;2022-12-18T01:31:14;4.47;;;3.87;;
11338;SDS011;5724;42.684;23.252;2022-12-18T01:33:42;5.63;;;5.03;;
11338;SDS011;5724;42.684;23.252;2022-12-18T01:36:08;6.00;;;4.77;;
11338;SDS011;5724;42.684;23.252;2022-12-18T01:38:40;6.97;;;6.37;;
11338;SDS011;5724;42.684;23.252;2022-12-18T01:41:06;5.70;;;4.97;;
11338;SDS011;5724;42.684;23.252;2022-12-18T01:43:48;4.87;;;4.47;;
11338;SDS011;5724;42.684;23.252;2022-12-18T01:46:23;4.53;;;4.20;;
11338;SDS011;5724;42.684;23.252;2022-12-18T01:48:54;5.03;;;4.63;;
11338;SDS011;5724;42.684;23.252;2022-12-18T01:51:24;5.73;;;5.23;;
11338;SDS011;5724;42.684;23.252;2022-12-18T01:53:51;4.87;;;4.47;;
11338;SDS011;5724;42.684;23.252;2022-12-18T01:56:17;4.77;;;4.47;;
11338;SDS011;5724;42.684;23.252;2022-12-18T02:01:23;7.37;;;6.50;;
11338;SDS011;5724;42.684;23.252;2022-12-18T02:03:49;6.87;;;6.23;;
11338;SDS011;5724;42.684;23.252;2022-12-18T02:06:19;3.87;;;3.17;;
11338;SDS011;5724;42.684;23.252;2022-12-18T02:09:07;5.77;;;5.33;;
11338;SDS011;5724;42.684;23.252;2022-12-18T02:14:31;4.53;;;4.13;;
11338;SDS011;5724;42.684;23.252;2022-12-18T02:17:22;4.37;;;4.00;;
11338;SDS011;5724;42.684;23.252;2022-12-18T02:22:41;4.43;;;3.07;;
11338;SDS011;5724;42.684;23.252;2022-12-18T02:28:11;3.97;;;3.67;;
11338;SDS011;5724;42.684;23.252;2022-12-18T02:30:40;4.90;;;4.43;;
11338;SDS011;5724;42.684;23.252;2022-12-18T02:33:08;4.03;;;3.73;;
11338;SDS011;5724;42.684;23.252;2022-12-18T02:35:36;4.47;;;4.17;;
11338;SDS011;5724;42.684;23.252;2022-12-18T02:38:04;7.07;;;5.27;;
11338;SDS011;5724;42.684;23.252;2022-12-18T02:40:29;4.57;;;4.17;;
11338;SDS011;5724;42.684;23.252;2022-12-18T02:43:02;4.17;;;3.87;;
11338;SDS011;5724;42.684;23.252;2022-12-18T02:45:52;4.90;;;4.43;;
11338;SDS011;5724;42.684;23.252;2022-12-18T02:48:22;7.13;;;6.53;;
11338;SDS011;5724;42.684;23.252;2022-12-18T02:51:39;9.70;;;7.43;;
11338;SDS011;5724;42.684;23.252;2022-12-18T02:53:52;4.83;;;4.40;;
11338;SDS011;5724;42.684;23.252;2022-12-18T02:56:35;3.67;;;3.43;;
11338;SDS011;5724;42.684;23.252;2022-12-18T02:59:09;4.27;;;3.87;;
11338;SDS011;5724;42.684;23.252;2022-12-18T03:04:40;4.93;;;4.43;;
11338;SDS011;5724;42.684;23.252;2022-12-18T03:07:09;4.73;;;4.33;;
11338;SDS011;5724;42.684;23.252;2022-12-18T03:09:42;4.97;;;4.33;;
11338;SDS011;5724;42.684;23.252;2022-12-18T03:12:15;5.73;;;5.00;;
11338;SDS011;5724;42.684;23.252;2022-12-18T03:14:51;6.27;;;5.07;;
11338;SDS011;5724;42.684;23.252;2022-12-18T03:17:21;3.57;;;3.33;;
11338;SDS011;5724;42.684;23.252;2022-12-18T03:19:50;6.03;;;5.53;;
11338;SDS011;5724;42.684;23.252;2022-12-18T03:22:18;5.07;;;4.67;;
11338;SDS011;5724;42.684;23.252;2022-12-18T03:24:46;5.07;;;4.57;;
11338;SDS011;5724;42.684;23.252;2022-12-18T03:27:13;4.40;;;4.00;;
11338;SDS011;5724;42.684;23.252;2022-12-18T03:29:48;5.50;;;4.70;;
11338;SDS011;5724;42.684;23.252;2022-12-18T03:32:21;10.33;;;9.43;;
11338;SDS011;5724;42.684;23.252;2022-12-18T03:34:53;9.63;;;8.87;;
11338;SDS011;5724;42.684;23.252;2022-12-18T03:37:23;9.77;;;8.97;;
11338;SDS011;5724;42.684;23.252;2022-12-18T03:39:49;8.63;;;7.93;;
11338;SDS011;5724;42.684;23.252;2022-12-18T03:42:22;3.83;;;3.27;;
11338;SDS011;5724;42.684;23.252;2022-12-18T03:45:18;4.10;;;3.73;;
11338;SDS011;5724;42.684;23.252;2022-12-18T03:53:22;3.83;;;3.50;;
11338;SDS011;5724;42.684;23.252;2022-12-18T03:56:09;3.63;;;3.13;;
11338;SDS011;5724;42.684;23.252;2022-12-18T03:58:39;5.97;;;4.87;;
11338;SDS011;5724;42.684;23.252;2022-12-18T04:01:06;4.90;;;4.43;;
11338;SDS011;5724;42.684;23.252;2022-12-18T04:03:33;3.83;;;3.53;;
11338;SDS011;5724;42.684;23.252;2022-12-18T04:06:00;4.57;;;4.17;;
11338;SDS011;5724;42.684;23.252;2022-12-18T04:08:27;4.53;;;4.23;;
11338;SDS011;5724;42.684;23.252;2022-12-18T04:10:54;8.87;;;8.17;;
11338;SDS011;5724;42.684;23.252;2022-12-18T04:13:37;8.57;;;7.60;;
11338;SDS011;5724;42.684;23.252;2022-12-18T04:16:04;10.10;;;8.03;;
11338;SDS011;5724;42.684;23.252;2022-12-18T04:18:30;9.37;;;8.53;;
11338;SDS011;5724;42.684;23.252;2022-12-18T04:20:55;5.40;;;4.93;;
11338;SDS011;5724;42.684;23.252;2022-12-18T04:23:21;4.00;;;3.60;;
11338;SDS011;5724;42.684;23.252;2022-12-18T04:25:47;4.33;;;4.03;;
11338;SDS011;5724;42.684;23.252;2022-12-18T04:28:12;4.07;;;3.67;;
11338;SDS011;5724;42.684;23.252;2022-12-18T04:30:38;5.67;;;5.17;;
11338;SDS011;5724;42.684;23.252;2022-12-18T04:33:07;5.33;;;4.83;;
11338;SDS011;5724;42.684;23.252;2022-12-18T04:35:34;7.93;;;5.73;;
11338;SDS011;5724;42.684;23.252;2022-12-18T04:38:00;4.77;;;3.83;;
11338;SDS011;5724;42.684;23.252;2022-12-18T04:40:25;5.40;;;4.70;;
11338;SDS011;5724;42.684;23.252;2022-12-18T04:42:51;5.13;;;4.73;;
11338;SDS011;5724;42.684;23.252;2022-12-18T04:45:16;6.03;;;5.43;;
11338;SDS011;5724;42.684;23.252;2022-12-18T04:47:42;4.83;;;4.43;;
11338;SDS011;5724;42.684;23.252;2022-12-18T04:50:07;6.53;;;4.60;;
11338;SDS011;5724;42.684;23.252;2022-12-18T04:52:33;5.10;;;4.70;;
11338;SDS011;5724;42.684;23.252;2022-12-18T04:54:58;7.23;;;5.73;;
11338;SDS011;5724;42.684;23.252;2022-12-18T04:57:24;8.50;;;6.93;;
11338;SDS011;5724;42.684;23.252;2022-12-18T04:59:49;7.03;;;6.13;;
11338;SDS011;5724;42.684;23.252;2022-12-18T05:02:15;12.63;;;10.00;;
11338;SDS011;5724;42.684;23.252;2022-12-18T05:04:40;15.90;;;9.90;;
11338;SDS011;5724;42.684;23.252;2022-12-18T05:07:06;11.87;;;10.73;;
11338;SDS011;5724;42.684;23.252;2022-12-18T05:09:31;7.70;;;6.90;;
11338;SDS011;5724;42.684;23.252;2022-12-18T05:11:56;7.17;;;6.37;;
11338;SDS011;5724;42.684;23.252;2022-12-18T05:14:22;7.40;;;6.33;;
11338;SDS011;5724;42.684;23.252;2022-12-18T05:16:48;11.33;;;8.33;;
11338;SDS011;5724;42.684;23.252;2022-12-18T05:19:13;7.07;;;6.00;;
11338;SDS011;5724;42.684;23.252;2022-12-18T05:21:38;6.53;;;5.57;;
11338;SDS011;5724;42.684;23.252;2022-12-18T05:24:04;7.10;;;6.40;;
11338;SDS011;5724;42.684;23.252;2022-12-18T05:26:30;6.80;;;5.97;;
11338;SDS011;5724;42.684;23.252;2022-12-18T05:28:55;8.00;;;6.03;;
11338;SDS011;5724;42.684;23.252;2022-12-18T05:31:21;9.03;;;6.07;;
11338;SDS011;5724;42.684;23.252;2022-12-18T05:33:46;14.90;;;12.37;;
11338;SDS011;5724;42.684;23.252;2022-12-18T05:36:12;14.47;;;11.47;;
11338;SDS011;5724;42.684;23.252;2022-12-18T05:38:37;11.80;;;10.60;;
11338;SDS011;5724;42.684;23.252;2022-12-18T05:41:04;12.53;;;10.70;;
11338;SDS011;5724;42.684;23.252;2022-12-18T05:43:30;9.70;;;8.07;;
11338;SDS011;5724;42.684;23.252;2022-12-18T05:45:56;10.27;;;6.43;;
11338;SDS011;5724;42.684;23.252;2022-12-18T05:48:22;10.73;;;7.70;;
11338;SDS011;5724;42.684;23.252;2022-12-18T05:50:48;8.07;;;6.63;;
11338;SDS011;5724;42.684;23.252;2022-12-18T05:53:15;7.10;;;6.33;;
11338;SDS011;5724;42.684;23.252;2022-12-18T05:55:42;8.03;;;5.77;;
11338;SDS011;5724;42.684;23.252;2022-12-18T05:58:09;9.33;;;7.60;;
11338;SDS011;5724;42.684;23.252;2022-12-18T06:00:37;7.87;;;6.17;;
11338;SDS011;5724;42.684;23.252;2022-12-18T06:03:05;13.73;;;10.83;;
11338;SDS011;5724;42.684;23.252;2022-12-18T06:05:34;7.57;;;5.10;;
11338;SDS011;5724;42.684;23.252;2022-12-18T06:08:03;8.50;;;7.40;;
11338;SDS011;5724;42.684;23.252;2022-12-18T06:10:29;8.53;;;5.70;;
11338;SDS011;5724;42.684;23.252;2022-12-18T06:12:54;5.70;;;4.23;;
11338;SDS011;5724;42.684;23.252;2022-12-18T06:15:20;16.97;;;13.67;;
11338;SDS011;5724;42.684;23.252;2022-12-18T06:17:45;15.83;;;13.90;;
11338;SDS011;5724;42.684;23.252;2022-12-18T06:20:11;16.33;;;13.73;;
11338;SDS011;5724;42.684;23.252;2022-12-18T06:22:36;16.63;;;13.20;;
11338;SDS011;5724;42.684;23.252;2022-12-18T06:25:02;8.10;;;6.53;;
11338;SDS011;5724;42.684;23.252;2022-12-18T06:27:27;7.67;;;6.07;;
11338;SDS011;5724;42.684;23.252;2022-12-18T06:30:12;11.80;;;8.37;;
11338;SDS011;5724;42.684;23.252;2022-12-18T06:32:38;10.83;;;7.17;;
11338;SDS011;5724;42.684;23.252;2022-12-18T06:35:03;7.60;;;6.20;;
11338;SDS011;5724;42.684;23.252;2022-12-18T06:37:30;8.37;;;6.97;;
11338;SDS011;5724;42.684;23.252;2022-12-18T06:39:56;8.93;;;5.80;;
11338;SDS011;5724;42.684;23.252;2022-12-18T06:42:22;7.30;;;6.00;;
11338;SDS011;5724;42.684;23.252;2022-12-18T06:44:48;10.37;;;8.20;;
11338;SDS011;5724;42.684;23.252;2022-12-18T06:47:13;16.73;;;13.83;;
11338;SDS011;5724;42.684;23.252;2022-12-18T06:49:39;15.30;;;12.50;;
11338;SDS011;5724;42.684;23.252;2022-12-18T06:52:04;16.07;;;12.63;;
11338;SDS011;5724;42.684;23.252;2022-12-18T06:54:30;9.73;;;8.07;;
11338;SDS011;5724;42.684;23.252;2022-12-18T06:56:55;10.83;;;7.97;;
11338;SDS011;5724;42.684;23.252;2022-12-18T06:59:21;10.00;;;6.07;;
11338;SDS011;5724;42.684;23.252;2022-12-18T07:01:46;7.03;;;5.53;;
11338;SDS011;5724;42.684;23.252;2022-12-18T07:04:12;7.10;;;6.40;;
11338;SDS011;5724;42.684;23.252;2022-12-18T07:06:37;7.57;;;6.60;;
11338;SDS011;5724;42.684;23.252;2022-12-18T07:09:02;8.27;;;6.23;;
11338;SDS011;5724;42.684;23.252;2022-12-18T07:11:28;6.80;;;6.17;;
11338;SDS011;5724;42.684;23.252;2022-12-18T07:13:53;15.00;;;12.37;;
11338;SDS011;5724;42.684;23.252;2022-12-18T07:16:20;13.40;;;12.03;;
11338;SDS011;5724;42.684;23.252;2022-12-18T07:18:45;15.80;;;13.23;;
11338;SDS011;5724;42.684;23.252;2022-12-18T07:21:15;15.27;;;13.13;;
11338;SDS011;5724;42.684;23.252;2022-12-18T07:23:42;17.57;;;15.37;;
11338;SDS011;5724;42.684;23.252;2022-12-18T07:26:09;8.47;;;6.13;;
11338;SDS011;5724;42.684;23.252;2022-12-18T07:28:37;5.87;;;5.27;;
11338;SDS011;5724;42.684;23.252;2022-12-18T07:31:09;8.87;;;7.57;;
11338;SDS011;5724;42.684;23.252;2022-12-18T07:33:36;9.77;;;8.20;;
11338;SDS011;5724;42.684;23.252;2022-12-18T07:36:03;11.03;;;8.10;;
11338;SDS011;5724;42.684;23.252;2022-12-18T07:38:30;8.17;;;6.40;;
11338;SDS011;5724;42.684;23.252;2022-12-18T07:41:00;11.43;;;6.93;;
11338;SDS011;5724;42.684;23.252;2022-12-18T07:43:33;10.10;;;6.63;;
11338;SDS011;5724;42.684;23.252;2022-12-18T07:45:59;8.37;;;6.83;;
11338;SDS011;5724;42.684;23.252;2022-12-18T07:48:24;9.70;;;7.33;;
11338;SDS011;5724;42.684;23.252;2022-12-18T07:51:08;12.80;;;8.93;;
11338;SDS011;5724;42.684;23.252;2022-12-18T07:53:35;12.60;;;8.40;;
11338;SDS011;5724;42.684;23.252;2022-12-18T07:56:04;8.30;;;7.57;;
11338;SDS011;5724;42.684;23.252;2022-12-18T07:58:32;12.07;;;8.17;;
11338;SDS011;5724;42.684;23.252;2022-12-18T08:01:05;9.67;;;7.80;;
11338;SDS011;5724;42.684;23.252;2022-12-18T08:03:35;11.33;;;8.33;;
11338;SDS011;5724;42.684;23.252;2022-12-18T08:06:02;11.33;;;8.43;;
11338;SDS011;5724;42.684;23.252;2022-12-18T08:08:30;12.20;;;8.73;;
11338;SDS011;5724;42.684;23.252;2022-12-18T08:10:56;12.57;;;8.23;;
11338;SDS011;5724;42.684;23.252;2022-12-18T08:13:22;13.63;;;10.97;;
11338;SDS011;5724;42.684;23.252;2022-12-18T08:15:55;12.97;;;9.70;;
11338;SDS011;5724;42.684;23.252;2022-12-18T08:18:26;14.83;;;10.00;;
11338;SDS011;5724;42.684;23.252;2022-12-18T08:20:51;13.13;;;8.17;;
11338;SDS011;5724;42.684;23.252;2022-12-18T08:23:17;14.50;;;9.10;;
11338;SDS011;5724;42.684;23.252;2022-12-18T08:25:42;14.50;;;8.47;;
11338;SDS011;5724;42.684;23.252;2022-12-18T08:28:08;21.23;;;9.87;;
11338;SDS011;5724;42.684;23.252;2022-12-18T08:30:35;11.27;;;9.53;;
11338;SDS011;5724;42.684;23.252;2022-12-18T08:33:00;10.10;;;7.80;;
11338;SDS011;5724;42.684;23.252;2022-12-18T08:35:26;16.30;;;9.27;;
11338;SDS011;5724;42.684;23.252;2022-12-18T08:37:52;10.83;;;7.57;;
11338;SDS011;5724;42.684;23.252;2022-12-18T08:40:17;23.03;;;17.00;;
11338;SDS011;5724;42.684;23.252;2022-12-18T08:42:42;24.23;;;17.67;;
11338;SDS011;5724;42.684;23.252;2022-12-18T08:45:27;25.13;;;17.33;;
11338;SDS011;5724;42.684;23.252;2022-12-18T08:47:52;20.97;;;16.83;;
11338;SDS011;5724;42.684;23.252;2022-12-18T08:50:18;20.50;;;16.33;;
11338;SDS011;5724;42.684;23.252;2022-12-18T08:52:45;12.37;;;9.60;;
11338;SDS011;5724;42.684;23.252;2022-12-18T08:55:10;7.87;;;6.43;;
11338;SDS011;5724;42.684;23.252;2022-12-18T08:57:35;11.80;;;8.37;;
11338;SDS011;5724;42.684;23.252;2022-12-18T09:00:01;11.77;;;6.87;;
11338;SDS011;5724;42.684;23.252;2022-12-18T09:02:28;15.90;;;10.10;;
11338;SDS011;5724;42.684;23.252;2022-12-18T09:04:53;18.13;;;9.27;;
11338;SDS011;5724;42.684;23.252;2022-12-18T09:07:19;10.13;;;6.17;;
11338;SDS011;5724;42.684;23.252;2022-12-18T09:09:44;14.40;;;9.63;;
11338;SDS011;5724;42.684;23.252;2022-12-18T09:12:09;23.10;;;17.37;;
11338;SDS011;5724;42.684;23.252;2022-12-18T09:14:35;24.20;;;18.07;;
11338;SDS011;5724;42.684;23.252;2022-12-18T09:17:00;22.60;;;16.60;;
11338;SDS011;5724;42.684;23.252;2022-12-18T09:19:26;18.20;;;15.17;;
11338;SDS011;5724;42.684;23.252;2022-12-18T09:21:52;20.90;;;15.33;;
11338;SDS011;5724;42.684;23.252;2022-12-18T09:24:17;17.83;;;14.87;;
11338;SDS011;5724;42.684;23.252;2022-12-18T09:26:43;19.80;;;14.10;;
11338;SDS011;5724;42.684;23.252;2022-12-18T09:29:09;19.13;;;15.40;;
11338;SDS011;5724;42.684;23.252;2022-12-18T09:31:34;19.23;;;14.20;;
11338;SDS011;5724;42.684;23.252;2022-12-18T09:34:01;17.67;;;13.37;;
11338;SDS011;5724;42.684;23.252;2022-12-18T09:36:26;20.73;;;15.37;;
11338;SDS011;5724;42.684;23.252;2022-12-18T09:38:52;9.57;;;7.80;;
11338;SDS011;5724;42.684;23.252;2022-12-18T09:41:36;9.80;;;6.97;;
11338;SDS011;5724;42.684;23.252;2022-12-18T09:44:39;12.03;;;8.33;;
11338;SDS011;5724;42.684;23.252;2022-12-18T09:47:13;13.53;;;6.70;;
11338;SDS011;5724;42.684;23.252;2022-12-18T09:49:44;12.73;;;7.03;;
11338;SDS011;5724;42.684;23.252;2022-12-18T09:52:12;7.57;;;5.37;;
11338;SDS011;5724;42.684;23.252;2022-12-18T09:54:43;12.53;;;8.97;;
11338;SDS011;5724;42.684;23.252;2022-12-18T09:57:15;7.67;;;6.37;;
11338;SDS011;5724;42.684;23.252;2022-12-18T09:59:44;11.10;;;7.53;;
11338;SDS011;5724;42.684;23.252;2022-12-18T10:02:20;15.40;;;7.77;;
11338;SDS011;5724;42.684;23.252;2022-12-18T10:13:23;8.57;;;6.63;;
11338;SDS011;5724;42.684;23.252;2022-12-18T10:16:23;9.53;;;7.30;;
11338;SDS011;5724;42.684;23.252;2022-12-18T10:19:32;8.67;;;7.20;;
11338;SDS011;5724;42.684;23.252;2022-12-18T10:24:43;9.87;;;6.13;;
11338;SDS011;5724;42.684;23.252;2022-12-18T10:27:23;8.93;;;6.63;;
11338;SDS011;5724;42.684;23.252;2022-12-18T10:29:51;7.13;;;5.93;;
11338;SDS011;5724;42.684;23.252;2022-12-18T10:32:18;10.00;;;8.00;;
11338;SDS011;5724;42.684;23.252;2022-12-18T10:34:52;6.80;;;5.83;;
11338;SDS011;5724;42.684;23.252;2022-12-18T10:37:21;17.10;;;9.80;;
11338;SDS011;5724;42.684;23.252;2022-12-18T10:40:11;20.27;;;14.17;;
11338;SDS011;5724;42.684;23.252;2022-12-18T10:42:39;18.47;;;14.47;;
11338;SDS011;5724;42.684;23.252;2022-12-18T10:45:13;17.77;;;14.20;;
11338;SDS011;5724;42.684;23.252;2022-12-18T10:47:48;14.37;;;12.37;;
11338;SDS011;5724;42.684;23.252;2022-12-18T10:50:18;14.43;;;11.67;;
11338;SDS011;5724;42.684;23.252;2022-12-18T10:52:53;16.47;;;11.90;;
11338;SDS011;5724;42.684;23.252;2022-12-18T10:55:20;17.90;;;13.10;;
11338;SDS011;5724;42.684;23.252;2022-12-18T10:57:46;16.30;;;12.90;;
11338;SDS011;5724;42.684;23.252;2022-12-18T11:00:20;15.53;;;12.53;;
11338;SDS011;5724;42.684;23.252;2022-12-18T11:02:55;16.07;;;12.57;;
11338;SDS011;5724;42.684;23.252;2022-12-18T11:07:50;10.63;;;8.10;;
11338;SDS011;5724;42.684;23.252;2022-12-18T11:10:16;8.43;;;5.97;;
11338;SDS011;5724;42.684;23.252;2022-12-18T11:12:44;13.93;;;9.20;;
11338;SDS011;5724;42.684;23.252;2022-12-18T11:15:14;10.77;;;8.27;;
11338;SDS011;5724;42.684;23.252;2022-12-18T11:18:00;9.17;;;6.63;;
11338;SDS011;5724;42.684;23.252;2022-12-18T11:20:33;12.53;;;7.13;;
11338;SDS011;5724;42.684;23.252;2022-12-18T11:23:01;8.70;;;6.30;;
11338;SDS011;5724;42.684;23.252;2022-12-18T11:25:29;7.00;;;5.37;;
11338;SDS011;5724;42.684;23.252;2022-12-18T11:27:56;14.33;;;11.10;;
11338;SDS011;5724;42.684;23.252;2022-12-18T11:30:30;13.83;;;10.97;;
11338;SDS011;5724;42.684;23.252;2022-12-18T11:33:04;15.70;;;10.87;;
11338;SDS011;5724;42.684;23.252;2022-12-18T11:38:28;14.13;;;10.10;;
11338;SDS011;5724;42.684;23.252;2022-12-18T11:41:04;18.07;;;12.17;;
11338;SDS011;5724;42.684;23.252;2022-12-18T11:43:44;14.30;;;10.73;;
11338;SDS011;5724;42.684;23.252;2022-12-18T11:46:17;13.80;;;10.70;;
11338;SDS011;5724;42.684;23.252;2022-12-18T11:48:57;9.10;;;7.07;;
11338;SDS011;5724;42.684;23.252;2022-12-18T11:51:33;5.77;;;5.23;;
11338;SDS011;5724;42.684;23.252;2022-12-18T11:54:12;9.73;;;5.63;;
11338;SDS011;5724;42.684;23.252;2022-12-18T11:56:42;13.20;;;7.63;;
11338;SDS011;5724;42.684;23.252;2022-12-18T12:16:48;14.53;;;11.80;;
11338;SDS011;5724;42.684;23.252;2022-12-18T12:27:49;15.73;;;12.83;;
11338;SDS011;5724;42.684;23.252;2022-12-18T12:38:25;6.77;;;6.17;;
11338;SDS011;5724;42.684;23.252;2022-12-18T12:40:59;7.43;;;6.73;;
11338;SDS011;5724;42.684;23.252;2022-12-18T12:43:42;9.67;;;6.70;;
11338;SDS011;5724;42.684;23.252;2022-12-18T12:46:12;11.60;;;7.83;;
11338;SDS011;5724;42.684;23.252;2022-12-18T12:51:09;10.20;;;7.53;;
11338;SDS011;5724;42.684;23.252;2022-12-18T12:53:39;19.27;;;14.30;;
11338;SDS011;5724;42.684;23.252;2022-12-18T12:56:08;20.27;;;15.23;;
11338;SDS011;5724;42.684;23.252;2022-12-18T12:59:22;18.90;;;14.97;;
11338;SDS011;5724;42.684;23.252;2022-12-18T13:01:41;20.73;;;15.03;;
11338;SDS011;5724;42.684;23.252;2022-12-18T13:04:21;17.27;;;13.67;;
11338;SDS011;5724;42.684;23.252;2022-12-18T13:06:53;17.80;;;14.70;;
11338;SDS011;5724;42.684;23.252;2022-12-18T13:09:32;18.60;;;13.67;;
11338;SDS011;5724;42.684;23.252;2022-12-18T13:12:09;19.13;;;13.90;;
11338;SDS011;5724;42.684;23.252;2022-12-18T13:14:58;8.67;;;7.37;;
11338;SDS011;5724;42.684;23.252;2022-12-18T13:17:44;9.10;;;5.67;;
11338;SDS011;5724;42.684;23.252;2022-12-18T13:20:11;9.33;;;7.87;;
11338;SDS011;5724;42.684;23.252;2022-12-18T13:22:44;8.67;;;7.57;;
11338;SDS011;5724;42.684;23.252;2022-12-18T13:30:41;6.50;;;5.90;;
11338;SDS011;5724;42.684;23.252;2022-12-18T13:40:59;17.27;;;13.53;;
11338;SDS011;5724;42.684;23.252;2022-12-18T13:43:47;18.10;;;12.90;;
11338;SDS011;5724;42.684;23.252;2022-12-18T13:51:39;17.90;;;13.70;;
11338;SDS011;5724;42.684;23.252;2022-12-18T13:54:19;17.17;;;13.20;;
11338;SDS011;5724;42.684;23.252;2022-12-18T13:56:47;14.30;;;12.90;;
11338;SDS011;5724;42.684;23.252;2022-12-18T14:07:18;11.20;;;5.97;;
11338;SDS011;5724;42.684;23.252;2022-12-18T14:09:54;10.67;;;6.80;;
11338;SDS011;5724;42.684;23.252;2022-12-18T14:12:25;7.00;;;5.70;;
11338;SDS011;5724;42.684;23.252;2022-12-18T14:17:59;6.13;;;4.47;;
11338;SDS011;5724;42.684;23.252;2022-12-18T14:20:28;5.40;;;4.90;;
11338;SDS011;5724;42.684;23.252;2022-12-18T14:22:56;4.17;;;3.77;;
11338;SDS011;5724;42.684;23.252;2022-12-18T14:25:24;9.20;;;5.97;;
11338;SDS011;5724;42.684;23.252;2022-12-18T14:30:39;7.47;;;6.63;;
11338;SDS011;5724;42.684;23.252;2022-12-18T14:33:08;10.63;;;7.70;;
11338;SDS011;5724;42.684;23.252;2022-12-18T14:35:35;17.93;;;13.63;;
11338;SDS011;5724;42.684;23.252;2022-12-18T14:41:00;18.97;;;13.77;;
11338;SDS011;5724;42.684;23.252;2022-12-18T14:43:29;21.17;;;14.33;;
11338;SDS011;5724;42.684;23.252;2022-12-18T14:45:58;20.43;;;14.80;;
11338;SDS011;5724;42.684;23.252;2022-12-18T14:50:57;21.43;;;15.63;;
11338;SDS011;5724;42.684;23.252;2022-12-18T14:53:36;18.67;;;13.53;;
11338;SDS011;5724;42.684;23.252;2022-12-18T14:59:03;17.73;;;12.93;;
11338;SDS011;5724;42.684;23.252;2022-12-18T15:01:37;18.83;;;12.40;;
11338;SDS011;5724;42.684;23.252;2022-12-18T15:07:10;15.63;;;11.83;;
11338;SDS011;5724;42.684;23.252;2022-12-18T15:09:42;14.73;;;11.23;;
11338;SDS011;5724;42.684;23.252;2022-12-18T15:12:35;14.07;;;11.03;;
11338;SDS011;5724;42.684;23.252;2022-12-18T15:15:41;12.73;;;11.07;;
11338;SDS011;5724;42.684;23.252;2022-12-18T15:20:50;15.83;;;12.83;;
11338;SDS011;5724;42.684;23.252;2022-12-18T15:23:19;36.30;;;23.73;;
11338;SDS011;5724;42.684;23.252;2022-12-18T15:25:47;23.37;;;16.83;;
11338;SDS011;5724;42.684;23.252;2022-12-18T15:28:17;14.30;;;11.17;;
11338;SDS011;5724;42.684;23.252;2022-12-18T15:30:59;16.50;;;12.93;;
11338;SDS011;5724;42.684;23.252;2022-12-18T15:33:32;14.17;;;12.07;;
11338;SDS011;5724;42.684;23.252;2022-12-18T15:36:00;14.43;;;12.37;;
11338;SDS011;5724;42.684;23.252;2022-12-18T15:38:27;15.13;;;12.50;;
11338;SDS011;5724;42.684;23.252;2022-12-18T15:40:53;15.47;;;10.73;;
11338;SDS011;5724;42.684;23.252;2022-12-18T15:43:23;12.33;;;10.37;;
11338;SDS011;5724;42.684;23.252;2022-12-18T15:46:12;9.30;;;6.27;;
11338;SDS011;5724;42.684;23.252;2022-12-18T15:48:46;11.70;;;6.57;;
11338;SDS011;5724;42.684;23.252;2022-12-18T15:53:43;8.83;;;6.20;;
11338;SDS011;5724;42.684;23.252;2022-12-18T15:56:13;9.60;;;7.33;;
11338;SDS011;5724;42.684;23.252;2022-12-18T15:58:58;9.27;;;5.80;;
11338;SDS011;5724;42.684;23.252;2022-12-18T16:01:24;10.40;;;7.27;;
11338;SDS011;5724;42.684;23.252;2022-12-18T16:03:52;7.33;;;6.60;;
11338;SDS011;5724;42.684;23.252;2022-12-18T16:06:18;8.83;;;6.37;;
11338;SDS011;5724;42.684;23.252;2022-12-18T16:08:43;9.97;;;6.23;;
11338;SDS011;5724;42.684;23.252;2022-12-18T16:11:23;11.37;;;7.00;;
11338;SDS011;5724;42.684;23.252;2022-12-18T16:16:43;17.70;;;12.10;;
11338;SDS011;5724;42.684;23.252;2022-12-18T16:19:10;19.53;;;13.47;;
11338;SDS011;5724;42.684;23.252;2022-12-18T16:21:35;17.30;;;12.37;;
11338;SDS011;5724;42.684;23.252;2022-12-18T16:24:01;18.33;;;13.20;;
11338;SDS011;5724;42.684;23.252;2022-12-18T16:26:27;17.63;;;12.83;;
11338;SDS011;5724;42.684;23.252;2022-12-18T16:28:52;18.67;;;13.43;;
11338;SDS011;5724;42.684;23.252;2022-12-18T16:31:18;16.47;;;12.13;;
11338;SDS011;5724;42.684;23.252;2022-12-18T16:33:43;16.10;;;13.00;;
11338;SDS011;5724;42.684;23.252;2022-12-18T16:36:09;21.97;;;14.53;;
11338;SDS011;5724;42.684;23.252;2022-12-18T16:38:34;20.97;;;14.13;;
11338;SDS011;5724;42.684;23.252;2022-12-18T16:41:00;16.30;;;12.83;;
11338;SDS011;5724;42.684;23.252;2022-12-18T16:43:43;16.93;;;12.43;;
11338;SDS011;5724;42.684;23.252;2022-12-18T16:46:09;19.37;;;13.03;;
11338;SDS011;5724;42.684;23.252;2022-12-18T16:48:34;16.40;;;12.57;;
11338;SDS011;5724;42.684;23.252;2022-12-18T16:51:01;16.67;;;13.00;;
11338;SDS011;5724;42.684;23.252;2022-12-18T16:53:27;15.23;;;12.50;;
11338;SDS011;5724;42.684;23.252;2022-12-18T16:55:54;18.30;;;13.73;;
11338;SDS011;5724;42.684;23.252;2022-12-18T16:58:22;16.90;;;12.87;;